Time;durP1;ratioP1;P1;durP2;ratioP2;P2;SDS_P1;SDS_P2;PMS_P1;PMS_P2;Temp;Humidity;BMP_temperature;BMP_pressure;BME280_temperature;BME280_humidity;BME280_pressure;Samples;Min_cycle;Max_cycle;Signal;HPM_P1;HPM_P2
2023/07/09 00:02:22;;;;;;;5.68;2.47;;;16.20;99.90;;;;;;5053429;28;20025;-74
2023/07/09 00:04:48;;;;;;;9.38;2.20;;;16.30;99.90;;;;;;5053981;28;20128;-73
2023/07/09 00:07:19;;;;;;;8.18;2.00;;;16.30;99.90;;;;;;5053968;28;20554;-73
2023/07/09 00:09:45;;;;;;;9.57;2.13;;;16.30;99.90;;;;;;5054128;28;20052;-73
2023/07/09 00:12:15;;;;;;;7.38;2.17;;;16.20;99.90;;;;;;5053689;28;20453;-75
2023/07/09 00:14:41;;;;;;;6.25;2.33;;;16.20;99.90;;;;;;5054035;28;20021;-73
2023/07/09 00:17:12;;;;;;;9.23;3.15;;;16.20;99.90;;;;;;5053629;28;20040;-73
2023/07/09 00:19:38;;;;;;;12.93;3.00;;;16.20;99.90;;;;;;5053871;28;20033;-73
2023/07/09 00:22:16;;;;;;;8.90;2.47;;;16.30;99.90;;;;;;5053865;28;20490;-73
2023/07/09 00:24:47;;;;;;;4.90;2.45;;;16.30;99.90;;;;;;5053898;28;20032;-73
2023/07/09 00:27:14;;;;;;;7.97;2.20;;;16.40;99.90;;;;;;5053251;28;20056;-74
2023/07/09 00:29:41;;;;;;;8.25;2.35;;;16.40;99.90;;;;;;5053438;28;20056;-73
2023/07/09 00:32:15;;;;;;;6.25;2.30;;;16.40;99.90;;;;;;5053340;28;20036;-73
2023/07/09 00:34:48;;;;;;;11.63;2.90;;;16.40;99.90;;;;;;5053276;28;20419;-73
2023/07/09 00:37:18;;;;;;;7.50;2.13;;;16.40;99.90;;;;;;5053172;28;20028;-73
2023/07/09 00:39:44;;;;;;;6.82;1.98;;;16.40;99.90;;;;;;5053478;28;20507;-73
2023/07/09 00:42:19;;;;;;;11.95;2.80;;;16.30;99.90;;;;;;5053429;28;20017;-74
2023/07/09 00:44:51;;;;;;;8.55;2.45;;;16.10;99.90;;;;;;5053437;28;20029;-73
2023/07/09 00:47:28;;;;;;;10.80;2.50;;;16.00;99.90;;;;;;5052854;28;20020;-74
2023/07/09 00:50:09;;;;;;;8.55;2.58;;;15.90;99.90;;;;;;5053385;28;20036;-73
2023/07/09 00:52:49;;;;;;;14.40;2.72;;;15.90;99.90;;;;;;5052946;28;20105;-73
2023/07/09 00:55:20;;;;;;;8.02;3.13;;;15.80;99.90;;;;;;5052859;28;20090;-74
2023/07/09 00:57:55;;;;;;;10.93;2.30;;;15.70;99.90;;;;;;5052079;28;20070;-73
2023/07/09 01:00:25;;;;;;;6.90;2.55;;;15.60;99.90;;;;;;5053223;28;20090;-74
2023/07/09 01:02:51;;;;;;;10.18;2.40;;;15.50;99.90;;;;;;5052600;28;20107;-74
2023/07/09 01:05:19;;;;;;;9.55;2.20;;;15.50;99.90;;;;;;5053144;28;20029;-73
2023/07/09 01:07:45;;;;;;;10.13;2.28;;;15.50;99.90;;;;;;5053810;28;20047;-73
2023/07/09 01:10:16;;;;;;;5.75;1.50;;;15.60;99.90;;;;;;5053080;28;20025;-73
2023/07/09 01:12:42;;;;;;;6.28;1.70;;;15.70;99.90;;;;;;5053197;28;20446;-73
2023/07/09 01:15:08;;;;;;;6.57;1.70;;;15.80;99.90;;;;;;5052713;28;20033;-74
2023/07/09 01:17:34;;;;;;;10.93;2.20;;;15.90;99.90;;;;;;5052247;28;20260;-74
2023/07/09 01:20:00;;;;;;;5.95;2.22;;;16.00;99.90;;;;;;5052629;28;20036;-74
2023/07/09 01:22:27;;;;;;;5.97;2.28;;;16.20;99.90;;;;;;5050810;28;20150;-74
2023/07/09 01:24:53;;;;;;;9.77;2.83;;;16.20;99.90;;;;;;5052835;28;20051;-74
2023/07/09 01:27:27;;;;;;;11.55;2.22;;;16.30;99.90;;;;;;5051791;28;20025;-74
2023/07/09 01:29:55;;;;;;;8.18;1.80;;;16.40;99.90;;;;;;5052175;28;20516;-74
2023/07/09 01:32:21;;;;;;;6.53;2.00;;;16.40;99.90;;;;;;5051981;28;20053;-74
2023/07/09 01:34:49;;;;;;;5.57;1.85;;;16.40;99.90;;;;;;5052427;28;20036;-74
2023/07/09 01:37:23;;;;;;;8.05;2.13;;;16.40;99.90;;;;;;5052051;28;20103;-76
2023/07/09 01:39:50;;;;;;;8.02;2.63;;;16.40;99.90;;;;;;5052217;28;20033;-74
2023/07/09 01:42:17;;;;;;;12.02;2.70;;;16.30;99.90;;;;;;5051822;28;20036;-75
2023/07/09 01:44:45;;;;;;;11.77;2.78;;;16.30;99.90;;;;;;5052447;28;20025;-74
2023/07/09 01:47:12;;;;;;;5.72;2.30;;;16.20;99.90;;;;;;5051987;28;20111;-74
2023/07/09 01:49:39;;;;;;;7.30;2.03;;;16.20;99.90;;;;;;5051335;28;20037;-74
2023/07/09 01:52:08;;;;;;;13.57;2.75;;;16.20;99.90;;;;;;5052207;28;20051;-73
2023/07/09 01:54:37;;;;;;;5.55;1.90;;;16.10;99.90;;;;;;5051671;28;20017;-74
2023/07/09 01:57:15;;;;;;;10.45;2.78;;;16.10;99.90;;;;;;5051841;28;20059;-73
2023/07/09 01:59:41;;;;;;;4.82;1.90;;;16.00;99.90;;;;;;5051623;28;20068;-74
2023/07/09 02:02:08;;;;;;;6.30;2.30;;;15.90;99.90;;;;;;5051659;28;20033;-74
2023/07/09 02:04:34;;;;;;;12.88;3.05;;;15.90;99.90;;;;;;5051434;28;20024;-73
2023/07/09 02:07:00;;;;;;;15.32;3.08;;;15.80;99.90;;;;;;5052167;28;20108;-73
2023/07/09 02:09:25;;;;;;;6.93;2.58;;;15.70;99.90;;;;;;5050864;28;20106;-74
2023/07/09 02:11:51;;;;;;;11.60;2.75;;;15.70;99.90;;;;;;5051796;28;20079;-73
2023/07/09 02:14:17;;;;;;;8.32;2.63;;;15.60;99.90;;;;;;5051409;28;20112;-75
2023/07/09 02:16:43;;;;;;;11.55;3.30;;;15.50;99.90;;;;;;5051137;28;20025;-74
2023/07/09 02:19:09;;;;;;;13.35;3.60;;;15.40;99.90;;;;;;5051603;28;20326;-74
2023/07/09 02:21:35;;;;;;;7.57;3.28;;;15.40;99.90;;;;;;5051412;28;20029;-74
2023/07/09 02:24:00;;;;;;;11.68;3.00;;;15.40;99.90;;;;;;5049908;28;20334;-74
2023/07/09 02:26:26;;;;;;;8.57;3.05;;;15.30;99.90;;;;;;5050678;28;20113;-74
2023/07/09 02:28:52;;;;;;;9.57;2.80;;;15.30;99.90;;;;;;5051192;28;20088;-74
2023/07/09 02:31:19;;;;;;;8.68;2.50;;;15.30;99.90;;;;;;5051062;28;20028;-75
2023/07/09 02:33:45;;;;;;;10.07;2.72;;;15.30;99.90;;;;;;5050933;28;20458;-74
2023/07/09 02:36:10;;;;;;;11.98;2.70;;;15.30;99.90;;;;;;5051309;28;20017;-74
2023/07/09 02:38:36;;;;;;;14.77;3.20;;;15.40;99.90;;;;;;5050477;28;20045;-74
2023/07/09 02:41:02;;;;;;;10.93;3.38;;;15.30;99.90;;;;;;5051158;28;20057;-74
2023/07/09 02:43:28;;;;;;;11.57;2.92;;;15.30;99.90;;;;;;5050783;28;20091;-74
2023/07/09 02:45:54;;;;;;;8.57;2.80;;;15.30;99.90;;;;;;5051478;28;20119;-74
2023/07/09 02:48:19;;;;;;;6.78;2.15;;;15.20;99.90;;;;;;5050849;28;20044;-75
2023/07/09 02:50:45;;;;;;;11.48;2.88;;;15.20;99.90;;;;;;5050973;28;20029;-74
2023/07/09 02:53:11;;;;;;;10.65;2.30;;;15.20;99.90;;;;;;5051110;28;20033;-74
2023/07/09 02:55:36;;;;;;;7.05;2.22;;;15.10;99.90;;;;;;5050418;28;20025;-74
2023/07/09 02:58:02;;;;;;;12.10;2.88;;;15.00;99.90;;;;;;5049428;28;20049;-73
2023/07/09 03:00:28;;;;;;;8.23;3.28;;;14.90;99.90;;;;;;5050641;28;20055;-74
2023/07/09 03:02:54;;;;;;;7.82;2.85;;;14.80;99.90;;;;;;5051060;28;20021;-73
2023/07/09 03:05:19;;;;;;;9.68;2.97;;;14.70;99.90;;;;;;5050788;28;20451;-75
2023/07/09 03:07:45;;;;;;;9.88;2.78;;;14.70;99.90;;;;;;5050685;28;20458;-74
2023/07/09 03:10:11;;;;;;;14.68;3.00;;;14.80;99.90;;;;;;5051140;28;20032;-73
2023/07/09 03:12:36;;;;;;;14.82;2.70;;;14.70;99.90;;;;;;5050295;28;20029;-74
2023/07/09 03:15:02;;;;;;;6.03;2.50;;;14.70;99.90;;;;;;5050611;28;20060;-74
2023/07/09 03:17:28;;;;;;;7.13;2.35;;;14.80;99.90;;;;;;5050058;28;20025;-74
2023/07/09 03:19:54;;;;;;;7.35;2.05;;;14.80;99.90;;;;;;5049832;28;20498;-73
2023/07/09 03:22:20;;;;;;;8.68;2.60;;;14.80;99.90;;;;;;5050768;28;20029;-73
2023/07/09 03:24:46;;;;;;;10.25;2.60;;;14.70;99.90;;;;;;5050134;28;20029;-73
2023/07/09 03:27:11;;;;;;;8.45;2.40;;;14.60;99.90;;;;;;5050154;28;20423;-73
2023/07/09 03:29:37;;;;;;;8.38;2.72;;;14.60;99.90;;;;;;5049679;28;20156;-73
2023/07/09 03:32:03;;;;;;;12.30;2.78;;;14.60;99.90;;;;;;5050429;28;20028;-73
2023/07/09 03:34:29;;;;;;;12.80;2.88;;;14.60;99.90;;;;;;5050316;28;20104;-74
2023/07/09 03:36:54;;;;;;;18.08;3.30;;;14.60;99.90;;;;;;5051205;28;20024;-74
2023/07/09 03:39:20;;;;;;;11.13;2.95;;;14.60;99.90;;;;;;5051195;28;20029;-73
2023/07/09 03:41:46;;;;;;;12.68;3.20;;;14.50;99.90;;;;;;5048883;28;20053;-73
2023/07/09 03:44:12;;;;;;;12.10;3.15;;;14.60;99.90;;;;;;5049168;28;20033;-74
2023/07/09 03:46:38;;;;;;;10.23;3.13;;;14.60;99.90;;;;;;5050142;28;20177;-74
2023/07/09 03:49:04;;;;;;;10.30;2.80;;;14.60;99.90;;;;;;5050523;28;20460;-74
2023/07/09 03:51:29;;;;;;;8.05;2.53;;;14.70;99.90;;;;;;5049909;28;20029;-74
2023/07/09 03:53:55;;;;;;;12.30;2.72;;;14.70;99.90;;;;;;5049002;28;20047;-74
2023/07/09 03:56:21;;;;;;;14.77;2.88;;;14.70;99.90;;;;;;5050402;28;20334;-74
2023/07/09 03:58:47;;;;;;;10.07;2.80;;;14.70;99.90;;;;;;5049578;28;20474;-74
2023/07/09 04:01:12;;;;;;;10.90;2.72;;;14.70;99.90;;;;;;5050295;28;20033;-74
2023/07/09 04:03:38;;;;;;;10.93;3.08;;;14.70;99.90;;;;;;5049898;28;20029;-74
2023/07/09 04:06:04;;;;;;;8.55;2.58;;;14.70;99.90;;;;;;5050901;28;20157;-74
2023/07/09 04:08:30;;;;;;;18.70;3.28;;;14.80;99.90;;;;;;5050230;28;20445;-74
2023/07/09 04:10:59;;;;;;;11.65;3.10;;;14.70;99.90;;;;;;5050603;28;20029;-73
2023/07/09 04:13:27;;;;;;;12.70;3.47;;;14.70;99.90;;;;;;5050483;28;20395;-75
2023/07/09 04:15:52;;;;;;;13.95;3.47;;;14.60;99.90;;;;;;5051130;28;20039;-73
2023/07/09 04:18:18;;;;;;;15.32;3.33;;;14.60;99.90;;;;;;5048959;28;20025;-73
2023/07/09 04:20:49;;;;;;;13.63;3.78;;;14.50;99.90;;;;;;5050033;28;20021;-73
2023/07/09 04:23:15;;;;;;;13.40;2.95;;;14.40;99.90;;;;;;5050418;28;20104;-73
2023/07/09 04:25:41;;;;;;;11.20;3.30;;;14.40;99.90;;;;;;5049781;28;20121;-73
2023/07/09 04:28:07;;;;;;;9.85;2.92;;;14.40;99.90;;;;;;5050078;28;20044;-73
2023/07/09 04:30:33;;;;;;;10.98;3.45;;;14.30;99.90;;;;;;5049358;28;20064;-74
2023/07/09 04:32:58;;;;;;;13.75;3.28;;;14.40;99.90;;;;;;5053602;28;20087;-74
2023/07/09 04:35:24;;;;;;;16.05;3.78;;;14.40;99.90;;;;;;5053968;28;20374;-73
2023/07/09 04:37:50;;;;;;;14.63;3.60;;;14.40;99.90;;;;;;5053678;28;20021;-73
2023/07/09 04:40:19;;;;;;;12.57;3.30;;;14.40;99.90;;;;;;5052755;28;20044;-73
2023/07/09 04:42:44;;;;;;;13.63;3.35;;;14.40;99.90;;;;;;5053053;28;20078;-73
2023/07/09 04:45:11;;;;;;;17.48;3.67;;;14.40;99.90;;;;;;5053458;28;20025;-73
2023/07/09 04:47:38;;;;;;;9.35;2.95;;;14.50;99.90;;;;;;5053226;28;20028;-73
2023/07/09 04:50:05;;;;;;;7.38;2.83;;;14.40;99.90;;;;;;5053309;28;20037;-74
2023/07/09 04:52:31;;;;;;;8.65;2.90;;;14.60;99.90;;;;;;5053047;28;20036;-73
2023/07/09 04:54:57;;;;;;;14.48;3.03;;;14.60;99.90;;;;;;5052972;28;20029;-73
2023/07/09 04:57:24;;;;;;;10.93;3.22;;;14.60;99.90;;;;;;5053288;28;20035;-74
2023/07/09 04:59:50;;;;;;;10.02;3.45;;;14.60;99.90;;;;;;5052458;28;20857;-74
2023/07/09 05:02:16;;;;;;;9.68;3.17;;;14.60;99.90;;;;;;5052829;28;20108;-73
2023/07/09 05:04:41;;;;;;;9.93;3.30;;;14.80;99.90;;;;;;5052670;28;20128;-74
2023/07/09 05:07:07;;;;;;;13.43;3.17;;;14.90;99.90;;;;;;5053437;28;20035;-74
2023/07/09 05:09:33;;;;;;;13.65;2.92;;;15.10;99.90;;;;;;5052067;28;20044;-74
2023/07/09 05:12:00;;;;;;;9.70;3.10;;;15.20;99.90;;;;;;5053550;28;20025;-74
2023/07/09 05:14:27;;;;;;;12.07;3.17;;;15.50;99.90;;;;;;5053323;28;20368;-72
2023/07/09 05:16:53;;;;;;;15.77;3.72;;;15.70;99.90;;;;;;5052978;28;20024;-72
2023/07/09 05:19:19;;;;;;;10.43;3.05;;;15.90;99.90;;;;;;5053370;28;20025;-72
2023/07/09 05:21:44;;;;;;;13.10;3.38;;;16.00;99.90;;;;;;5052989;28;20355;-74
2023/07/09 05:24:10;;;;;;;13.75;3.20;;;16.10;99.90;;;;;;5052974;28;20021;-73
2023/07/09 05:26:36;;;;;;;14.18;3.42;;;16.20;99.90;;;;;;5052302;28;20447;-74
2023/07/09 05:29:04;;;;;;;16.63;3.88;;;16.30;99.90;;;;;;5052241;28;20142;-72
2023/07/09 05:31:30;;;;;;;12.73;3.85;;;16.30;99.90;;;;;;5052563;28;20017;-75
2023/07/09 05:33:56;;;;;;;13.15;3.63;;;16.30;99.90;;;;;;5051893;28;20067;-73
2023/07/09 05:36:21;;;;;;;8.85;3.22;;;16.30;99.90;;;;;;5052134;28;20143;-71
2023/07/09 05:38:47;;;;;;;10.50;3.20;;;16.30;99.90;;;;;;5051902;28;20098;-71
2023/07/09 05:41:16;;;;;;;10.40;3.22;;;16.40;99.90;;;;;;5052005;28;20021;-72
2023/07/09 05:43:43;;;;;;;12.48;3.33;;;16.50;99.90;;;;;;5050998;28;20025;-72
2023/07/09 05:46:09;;;;;;;12.95;3.28;;;16.60;99.90;;;;;;5034365;28;20046;-71
2023/07/09 05:48:34;;;;;;;15.85;3.90;;;16.70;99.90;;;;;;5049871;28;20466;-73
2023/07/09 05:51:00;;;;;;;16.25;3.55;;;16.80;99.90;;;;;;5051788;28;20055;-72
2023/07/09 05:53:26;;;;;;;10.68;2.75;;;16.90;99.90;;;;;;5052041;28;20108;-72
2023/07/09 05:55:55;;;;;;;12.27;2.60;;;17.10;99.90;;;;;;5051055;28;20297;-72
2023/07/09 05:58:22;;;;;;;8.88;2.92;;;17.40;99.90;;;;;;5051943;28;20083;-73
2023/07/09 06:00:53;;;;;;;12.75;3.25;;;17.60;99.90;;;;;;5051229;28;20060;-72
2023/07/09 06:03:21;;;;;;;13.20;4.07;;;17.70;99.90;;;;;;5051818;28;20382;-72
2023/07/09 06:05:49;;;;;;;14.60;2.88;;;17.70;99.90;;;;;;5051214;28;20029;-72
2023/07/09 06:08:16;;;;;;;16.10;3.20;;;17.60;99.90;;;;;;5052087;28;20537;-72
2023/07/09 06:11:11;;;;;;;12.10;3.22;;;17.70;99.90;;;;;;5050845;28;20394;-73
2023/07/09 06:13:37;;;;;;;13.05;2.85;;;17.70;99.90;;;;;;5036975;28;20439;-73
2023/07/09 06:16:03;;;;;;;12.27;3.35;;;17.80;99.90;;;;;;5051863;28;20036;-73
2023/07/09 06:18:29;;;;;;;12.75;3.33;;;18.00;99.90;;;;;;5051369;28;20080;-73
2023/07/09 06:20:57;;;;;;;9.15;2.65;;;18.20;99.90;;;;;;5051021;28;20408;-73
2023/07/09 06:23:23;;;;;;;14.80;3.00;;;18.40;99.90;;;;;;5051489;28;20039;-73
2023/07/09 06:25:50;;;;;;;13.57;3.15;;;18.50;99.90;;;;;;5050831;28;20107;-73
2023/07/09 06:28:19;;;;;;;12.60;2.85;;;18.60;99.90;;;;;;5051441;28;20037;-72
2023/07/09 06:30:45;;;;;;;14.20;2.95;;;18.50;99.90;;;;;;5048806;28;20379;-73
2023/07/09 06:33:12;;;;;;;10.07;2.42;;;18.60;99.90;;;;;;5049915;28;20028;-72
2023/07/09 06:35:39;;;;;;;11.88;2.83;;;18.70;99.90;;;;;;5050447;28;20060;-73
2023/07/09 06:38:06;;;;;;;11.68;2.83;;;18.80;99.90;;;;;;5051177;28;20033;-73
2023/07/09 06:40:31;;;;;;;12.20;3.17;;;18.80;99.90;;;;;;5050932;28;20451;-72
2023/07/09 06:42:57;;;;;;;9.70;2.40;;;18.70;99.90;;;;;;5050320;28;20033;-72
2023/07/09 06:45:24;;;;;;;11.93;2.70;;;18.70;99.90;;;;;;5050561;28;20083;-72
2023/07/09 06:47:49;;;;;;;11.30;2.83;;;18.70;99.90;;;;;;5050659;28;20500;-71
2023/07/09 06:50:15;;;;;;;13.32;3.22;;;18.60;99.90;;;;;;5050360;28;20029;-72
2023/07/09 06:52:41;;;;;;;13.20;2.47;;;18.50;99.90;;;;;;5050100;28;20039;-71
2023/07/09 06:55:08;;;;;;;12.68;2.75;;;18.40;99.90;;;;;;5048096;28;20048;-71
2023/07/09 06:57:34;;;;;;;10.18;2.58;;;18.40;99.90;;;;;;5050642;28;20025;-72
2023/07/09 07:00:00;;;;;;;15.02;2.90;;;18.40;99.90;;;;;;5048726;28;20040;-72
2023/07/09 07:02:25;;;;;;;16.45;2.78;;;18.30;99.90;;;;;;5050665;28;20033;-72
2023/07/09 07:04:51;;;;;;;10.00;2.88;;;18.30;99.90;;;;;;5048641;28;20430;-72
2023/07/09 07:07:17;;;;;;;18.55;3.20;;;18.20;99.90;;;;;;5050618;28;20024;-72
2023/07/09 07:09:43;;;;;;;12.73;2.92;;;18.10;99.90;;;;;;5050012;28;20033;-72
2023/07/09 07:12:09;;;;;;;16.35;2.90;;;18.00;99.90;;;;;;5049886;28;20029;-72
2023/07/09 07:14:35;;;;;;;13.50;3.17;;;17.90;99.90;;;;;;5050561;28;20033;-72
2023/07/09 07:17:00;;;;;;;15.27;2.75;;;17.90;99.90;;;;;;5049839;28;20055;-72
2023/07/09 07:19:27;;;;;;;8.77;2.47;;;17.90;99.90;;;;;;5050377;28;20021;-72
2023/07/09 07:21:53;;;;;;;20.05;3.33;;;17.90;99.90;;;;;;5049986;28;20052;-72
2023/07/09 07:24:18;;;;;;;15.02;2.85;;;17.90;99.90;;;;;;5050363;28;20475;-72
2023/07/09 07:26:44;;;;;;;14.18;3.60;;;17.90;99.90;;;;;;5048567;28;20120;-72
2023/07/09 07:29:10;;;;;;;15.27;3.03;;;18.00;99.90;;;;;;5049997;28;20056;-72
2023/07/09 07:31:35;;;;;;;11.88;2.50;;;18.30;99.90;;;;;;5050047;28;20427;-72
2023/07/09 07:34:01;;;;;;;8.57;2.65;;;18.50;99.90;;;;;;5049657;28;20129;-72
2023/07/09 07:36:27;;;;;;;13.27;2.92;;;18.60;99.90;;;;;;5049728;28;20033;-72
2023/07/09 07:38:53;;;;;;;12.70;2.63;;;18.70;99.90;;;;;;5049730;28;20044;-72
2023/07/09 07:41:18;;;;;;;11.55;2.75;;;18.70;99.90;;;;;;5049974;28;20021;-72
2023/07/09 07:43:44;;;;;;;13.30;2.85;;;18.80;99.90;;;;;;5049421;28;20147;-72
2023/07/09 07:46:10;;;;;;;11.45;2.78;;;18.90;99.90;;;;;;5050149;28;20047;-74
2023/07/09 07:48:35;;;;;;;17.90;3.20;;;18.90;99.90;;;;;;5049813;28;20033;-73
2023/07/09 07:51:03;;;;;;;17.52;2.67;;;19.00;99.90;;;;;;5049444;28;20389;-74
2023/07/09 07:53:30;;;;;;;10.98;2.70;;;18.80;99.90;;;;;;5049931;28;20031;-72
2023/07/09 07:55:57;;;;;;;15.30;3.15;;;18.80;99.90;;;;;;5047747;28;20039;-72
2023/07/09 07:58:23;;;;;;;13.75;2.95;;;18.80;99.90;;;;;;5049968;28;20369;-73
2023/07/09 08:00:48;;;;;;;11.57;2.80;;;18.90;99.90;;;;;;5048880;28;20147;-73
2023/07/09 08:03:14;;;;;;;16.30;3.33;;;19.10;99.90;;;;;;5049645;28;20029;-72
2023/07/09 08:05:40;;;;;;;15.50;2.83;;;19.20;99.90;;;;;;5049509;28;20033;-74
2023/07/09 08:08:06;;;;;;;11.45;3.00;;;19.50;99.90;;;;;;5053875;28;20025;-72
2023/07/09 08:10:31;;;;;;;11.45;2.78;;;19.90;99.90;;;;;;5053766;28;20124;-73
2023/07/09 08:12:57;;;;;;;14.73;3.70;;;20.20;99.90;;;;;;5053377;28;20040;-71
2023/07/09 08:15:24;;;;;;;16.48;3.10;;;20.50;99.90;;;;;;5053961;28;20433;-72
2023/07/09 08:17:50;;;;;;;11.25;3.05;;;20.70;99.90;;;;;;5053304;28;20021;-72
2023/07/09 08:20:16;;;;;;;18.30;3.70;;;20.90;99.90;;;;;;5052138;28;20075;-72
2023/07/09 08:22:42;;;;;;;17.55;3.72;;;20.80;99.90;;;;;;5053050;28;20089;-74
2023/07/09 08:25:08;;;;;;;15.50;3.90;;;20.70;99.90;;;;;;5053426;28;20104;-72
2023/07/09 08:27:34;;;;;;;12.18;3.15;;;20.50;99.90;;;;;;5053001;28;20117;-72
2023/07/09 08:30:00;;;;;;;15.52;3.28;;;20.20;99.90;;;;;;5052534;28;20094;-73
2023/07/09 08:32:25;;;;;;;17.10;4.05;;;19.90;99.90;;;;;;5053078;28;20048;-74
2023/07/09 08:34:51;;;;;;;18.02;3.20;;;19.70;99.90;;;;;;5052683;28;20025;-72
2023/07/09 08:37:17;;;;;;;16.98;3.60;;;19.50;99.90;;;;;;5053070;28;20033;-71
2023/07/09 08:39:42;;;;;;;10.70;3.00;;;19.40;99.90;;;;;;5052748;28;20191;-74
2023/07/09 08:42:13;;;;;;;15.85;3.45;;;19.30;99.90;;;;;;5052716;28;20231;-72
2023/07/09 08:45:03;;;;;;;13.35;3.40;;;19.30;99.90;;;;;;5053550;28;20470;-72
2023/07/09 08:47:38;;;;;;;14.60;3.08;;;19.10;99.90;;;;;;5053194;28;20040;-72
2023/07/09 08:50:17;;;;;;;12.32;2.40;;;18.90;99.90;;;;;;5052572;28;20021;-72
2023/07/09 08:52:45;;;;;;;18.52;2.88;;;18.70;99.90;;;;;;5052874;28;20025;-75
2023/07/09 08:55:23;;;;;;;12.35;3.60;;;18.60;99.90;;;;;;5053022;28;20029;-72
2023/07/09 08:57:54;;;;;;;9.50;2.70;;;18.40;99.90;;;;;;5052449;28;20040;-71
2023/07/09 09:00:42;;;;;;;9.02;1.90;;;18.30;99.90;;;;;;5057137;28;20028;-71
2023/07/09 09:03:16;;;;;;;8.23;1.77;;;18.20;99.90;;;;;;5052149;28;20025;-72
2023/07/09 09:05:48;;;;;;;9.13;2.40;;;18.10;99.90;;;;;;5052725;28;20071;-71
2023/07/09 09:08:34;;;;;;;9.57;2.60;;;18.10;99.90;;;;;;5052470;28;20100;-71
2023/07/09 09:11:40;;;;;;;8.35;2.00;;;18.30;99.90;;;;;;5052511;28;20037;-72
2023/07/09 09:14:29;;;;;;;4.75;1.63;;;18.30;99.90;;;;;;5020644;28;20620;-72
2023/07/09 09:16:56;;;;;;;4.82;1.77;;;18.30;99.90;;;;;;5051834;28;20111;-72
2023/07/09 09:19:44;;;;;;;5.78;1.70;;;18.20;99.90;;;;;;5051618;28;20091;-72
2023/07/09 09:22:19;;;;;;;6.13;1.33;;;18.20;99.90;;;;;;5052763;28;20029;-72
2023/07/09 09:24:54;;;;;;;6.93;1.63;;;18.30;99.90;;;;;;5052914;28;20141;-74
2023/07/09 09:27:20;;;;;;;5.88;1.27;;;18.40;99.90;;;;;;5052525;28;20071;-72
2023/07/09 09:29:45;;;;;;;3.28;1.08;;;18.50;99.90;;;;;;5052394;28;20048;-74
2023/07/09 09:32:25;;;;;;;4.57;1.30;;;18.70;99.90;;;;;;5052389;28;20029;-72
2023/07/09 09:34:52;;;;;;;4.97;1.63;;;18.70;99.90;;;;;;5051270;28;20037;-72
2023/07/09 09:37:49;;;;;;;3.72;1.27;;;18.70;99.90;;;;;;5051819;28;20477;-72
2023/07/09 09:40:18;;;;;;;6.65;2.05;;;18.70;99.90;;;;;;5051564;28;20409;-72
2023/07/09 09:42:44;;;;;;;6.32;1.58;;;18.80;99.90;;;;;;5052479;28;20139;-72
2023/07/09 09:45:16;;;;;;;7.95;1.52;;;18.80;99.90;;;;;;5051568;28;20407;-72
2023/07/09 09:47:46;;;;;;;6.95;1.63;;;18.80;99.90;;;;;;5051434;28;20044;-72
2023/07/09 09:50:20;;;;;;;7.18;2.17;;;18.90;99.90;;;;;;5051453;28;20056;-72
2023/07/09 09:52:49;;;;;;;5.32;1.40;;;19.10;99.90;;;;;;5051676;28;20036;-73
2023/07/09 09:55:22;;;;;;;4.50;1.70;;;19.20;99.90;;;;;;5051815;28;20025;-72
2023/07/09 09:57:53;;;;;;;6.80;1.63;;;19.30;99.90;;;;;;5051546;28;20048;-76
2023/07/09 10:00:23;;;;;;;6.75;2.35;;;19.60;99.90;;;;;;5052067;28;20052;-73
2023/07/09 10:02:49;;;;;;;10.35;1.90;;;19.90;99.90;;;;;;5051346;28;20025;-75
2023/07/09 10:05:15;;;;;;;8.30;2.03;;;20.00;99.90;;;;;;5051594;28;20359;-72
2023/07/09 10:08:15;;;;;;;6.32;1.90;;;20.10;99.90;;;;;;5051408;28;20373;-73
2023/07/09 10:10:44;;;;;;;4.78;1.90;;;20.20;99.90;;;;;;5051561;28;20116;-72
2023/07/09 10:13:13;;;;;;;5.78;1.25;;;20.30;99.90;;;;;;5051295;28;20048;-72
2023/07/09 10:16:01;;;;;;;6.82;1.98;;;20.50;99.90;;;;;;5051591;28;20524;-73
2023/07/09 10:18:59;;;;;;;4.78;1.15;;;20.60;99.90;;;;;;5051757;28;20060;-73
2023/07/09 10:21:41;;;;;;;3.05;1.05;;;20.90;99.90;;;;;;5051357;28;20025;-72
2023/07/09 10:24:33;;;;;;;6.20;1.42;;;21.00;99.90;;;;;;5049625;28;20036;-72
2023/07/09 10:27:14;;;;;;;3.53;1.05;;;21.00;99.90;;;;;;5049424;28;20025;-72
2023/07/09 10:29:55;;;;;;;5.15;1.27;;;21.10;99.90;;;;;;5050631;28;20486;-73
2023/07/09 10:33:02;;;;;;;3.92;1.00;;;21.20;99.90;;;;;;5051016;28;20044;-72
2023/07/09 10:35:51;;;;;;;4.40;1.20;;;21.30;99.90;;;;;;5045153;28;20469;-73
2023/07/09 10:38:35;;;;;;;2.65;1.00;;;21.50;99.90;;;;;;5050809;28;20032;-73
2023/07/09 10:41:05;;;;;;;2.75;1.08;;;21.50;99.90;;;;;;5050227;28;20120;-71
2023/07/09 10:43:35;;;;;;;7.32;1.88;;;21.50;99.90;;;;;;5050941;28;20094;-73
2023/07/09 10:46:07;;;;;;;6.18;1.63;;;21.50;99.90;;;;;;5050189;28;20025;-73
2023/07/09 10:48:40;;;;;;;6.68;2.10;;;21.20;99.90;;;;;;5050344;28;20505;-72
2023/07/09 10:51:20;;;;;;;7.53;1.67;;;21.00;99.90;;;;;;5050085;28;20024;-73
2023/07/09 10:54:00;;;;;;;8.02;1.70;;;20.90;99.90;;;;;;5050742;28;20032;-73
2023/07/09 10:56:29;;;;;;;2.72;1.20;;;20.80;99.90;;;;;;5050718;28;20025;-73
2023/07/09 10:59:19;;;;;;;5.07;1.75;;;20.60;99.90;;;;;;5049772;28;20359;-72
2023/07/09 11:01:49;;;;;;;7.35;1.63;;;20.70;99.90;;;;;;5050289;28;20497;-72
2023/07/09 11:04:46;;;;;;;7.57;1.77;;;20.70;99.90;;;;;;5049594;28;20031;-71
2023/07/09 11:07:17;;;;;;;7.28;1.58;;;20.70;99.90;;;;;;5050226;28;20128;-72
2023/07/09 11:09:46;;;;;;;7.25;1.52;;;20.60;99.90;;;;;;5050356;28;20036;-72
2023/07/09 11:12:39;;;;;;;5.25;1.55;;;20.50;99.90;;;;;;5048135;28;20726;-72
2023/07/09 11:15:04;;;;;;;;;;;20.40;99.90;;;;;;5050055;28;20158;-73
2023/07/09 11:17:33;;;;;;;7.38;1.30;;;20.40;99.90;;;;;;5050242;28;19995;-72
2023/07/09 11:20:00;;;;;;;6.45;1.10;;;20.50;99.90;;;;;;5049491;28;20075;-73
2023/07/09 11:22:39;;;;;;;4.88;1.17;;;20.70;99.90;;;;;;5049896;28;20040;-72
2023/07/09 11:25:14;;;;;;;6.78;1.20;;;20.70;99.90;;;;;;5049859;28;20086;-72
2023/07/09 11:28:01;;;;;;;3.13;1.00;;;20.70;99.90;;;;;;5049960;28;20029;-72
2023/07/09 11:30:28;;;;;;;4.13;1.50;;;20.50;99.90;;;;;;5050198;28;20431;-73
2023/07/09 11:33:01;;;;;;;3.40;1.33;;;20.40;99.90;;;;;;5049798;28;20025;-75
2023/07/09 11:35:29;;;;;;;4.18;1.30;;;20.30;99.90;;;;;;5050520;28;20442;-73
2023/07/09 11:37:58;;;;;;;4.35;0.90;;;20.10;99.90;;;;;;5049832;28;20115;-75
2023/07/09 11:40:24;;;;;;;6.55;1.10;;;20.10;99.90;;;;;;5050035;28;20510;-73
2023/07/09 11:42:58;;;;;;;3.30;1.25;;;20.20;99.90;;;;;;5049893;28;20108;-72
2023/07/09 11:45:34;;;;;;;4.43;1.20;;;20.30;99.90;;;;;;5050355;28;20067;-73
2023/07/09 11:48:21;;;;;;;3.63;1.50;;;20.40;99.90;;;;;;5049585;28;20032;-73
2023/07/09 11:50:50;;;;;;;2.38;1.05;;;20.60;99.90;;;;;;5050079;28;20033;-72
2023/07/09 11:53:36;;;;;;;3.38;0.90;;;20.70;99.90;;;;;;5049840;28;20446;-72
2023/07/09 11:56:02;;;;;;;3.17;1.08;;;21.00;99.90;;;;;;5049608;28;20036;-73
2023/07/09 11:58:28;;;;;;;3.13;0.98;;;21.00;99.90;;;;;;5050035;28;20090;-73
2023/07/09 12:00:56;;;;;;;3.13;0.90;;;21.00;99.90;;;;;;5050478;28;20029;-74
2023/07/09 12:03:37;;;;;;;4.18;1.00;;;20.90;99.90;;;;;;5050095;28;20064;-72
2023/07/09 12:06:26;;;;;;;3.78;1.30;;;21.00;99.90;;;;;;5049388;28;20103;-72
2023/07/09 12:08:52;;;;;;;3.35;0.88;;;21.30;99.90;;;;;;5050036;28;20025;-72
2023/07/09 12:11:42;;;;;;;3.30;0.90;;;21.70;99.90;;;;;;5049611;28;20417;-72
2023/07/09 12:14:18;;;;;;;3.80;1.23;;;21.90;99.90;;;;;;5049377;28;20021;-72
2023/07/09 12:16:50;;;;;;;4.07;0.95;;;22.10;99.90;;;;;;5050134;28;20104;-72
2023/07/09 12:19:19;;;;;;;3.45;1.13;;;22.40;99.90;;;;;;5048132;28;20105;-72
2023/07/09 12:21:47;;;;;;;3.83;1.08;;;22.70;99.90;;;;;;5049839;28;20382;-72
2023/07/09 12:24:24;;;;;;;4.75;1.23;;;22.90;99.90;;;;;;5049294;28;20025;-72
2023/07/09 12:27:00;;;;;;;2.00;0.77;;;23.00;99.90;;;;;;5049886;28;20025;-72
2023/07/09 12:29:27;;;;;;;3.22;0.93;;;23.00;99.90;;;;;;5047824;28;20094;-72
2023/07/09 12:31:55;;;;;;;5.45;1.10;;;22.90;99.90;;;;;;5048192;28;20415;-72
2023/07/09 12:34:21;;;;;;;3.65;0.90;;;22.80;99.90;;;;;;5048842;28;20064;-72
2023/07/09 12:36:49;;;;;;;2.28;0.80;;;22.80;99.90;;;;;;5049450;28;20053;-72
2023/07/09 12:39:23;;;;;;;4.32;1.00;;;22.90;99.90;;;;;;5049319;28;20219;-72
2023/07/09 12:41:49;;;;;;;2.58;0.77;;;22.80;99.90;;;;;;5049624;28;20032;-72
2023/07/09 12:44:22;;;;;;;3.58;0.77;;;22.90;99.90;;;;;;5049331;28;20029;-72
2023/07/09 12:46:49;;;;;;;3.60;0.77;;;23.00;99.90;;;;;;5049695;28;20086;-72
2023/07/09 12:49:39;;;;;;;2.33;0.68;;;22.90;99.90;;;;;;5048959;28;20056;-72
2023/07/09 12:52:22;;;;;;;1.73;0.80;;;22.90;99.90;;;;;;5049105;28;20211;-72
2023/07/09 12:54:57;;;;;;;3.33;1.05;;;22.90;99.90;;;;;;5052541;28;20190;-72
2023/07/09 12:57:24;;;;;;;1.98;0.60;;;23.00;99.90;;;;;;5053358;28;20036;-72